createdAt,value
2023-11-01T10:05:21.395Z,99571.38
2023-11-01T10:07:48.610Z,99571.38
2023-11-01T10:10:18.412Z,99579.03
2023-11-01T10:12:49.332Z,99580.72
2023-11-01T10:15:21.565Z,99558.66
2023-11-01T10:17:49.823Z,99561.06
2023-11-01T10:20:25.107Z,99555.56
2023-11-01T10:22:57.696Z,99577.13
2023-11-01T10:25:26.824Z,99569.50
2023-11-01T10:27:58.488Z,99578.09
2023-11-01T10:30:26.540Z,99576.84
2023-11-01T10:32:59.779Z,99574.06
2023-11-01T10:35:30.420Z,99559.69
2023-11-01T10:38:01.902Z,99546.88
2023-11-01T10:40:30.626Z,99532.84
2023-11-01T10:43:05.222Z,99548.72
2023-11-01T10:45:33.867Z,99545.41
2023-11-01T10:48:04.658Z,99528.84
2023-11-01T10:50:37.990Z,99534.09
2023-11-01T10:53:06.143Z,99522.47
2023-11-01T10:55:33.481Z,99521.25
2023-11-01T10:58:01.179Z,99516.19
2023-11-01T11:00:39.978Z,99499.03
2023-11-01T11:03:28.998Z,99492.19
2023-11-01T11:06:05.371Z,99465.16
2023-11-01T11:08:33.053Z,99393.09
2023-11-01T11:11:20.140Z,99468.94
2023-11-01T11:13:52.488Z,99448.19
2023-11-01T11:16:22.176Z,99467.59
2023-11-01T11:19:10.248Z,99478.84
2023-11-01T11:21:46.385Z,99467.84
2023-11-01T11:24:40.457Z,99467.09
2023-11-01T11:27:29.252Z,99462.72
2023-11-01T11:29:56.526Z,99442.91
2023-11-01T11:32:24.039Z,99455.97
2023-11-01T11:34:51.419Z,99455.09
2023-11-01T11:37:29.941Z,99454.25
2023-11-01T11:40:08.453Z,99442.97
2023-11-01T11:42:52.110Z,99419.75
2023-11-01T11:45:30.394Z,99438.06
2023-11-01T11:48:00.400Z,99435.03
2023-11-01T11:50:29.673Z,99418.44
2023-11-01T11:52:57.472Z,99368.13
2023-11-01T11:55:47.427Z,99419.03
2023-11-01T11:58:14.789Z,99368.44
2023-11-01T12:00:46.966Z,99377.16
2023-11-01T12:03:25.311Z,99399.72
2023-11-01T12:05:58.625Z,99402.94
2023-11-01T12:08:39.568Z,99386.16
2023-11-01T12:11:06.966Z,99391.72
2023-11-01T12:14:00.497Z,99387.63
2023-11-01T12:16:29.946Z,99388.66
2023-11-01T12:19:19.867Z,99377.56
2023-11-01T12:21:49.552Z,99322.47
2023-11-01T12:24:19.774Z,99367.00
2023-11-01T12:27:05.596Z,99361.84
2023-11-01T12:29:43.274Z,99359.00
2023-11-01T12:32:27.778Z,99355.84
2023-11-01T12:34:54.873Z,99358.38
2023-11-01T12:37:28.000Z,99347.97
2023-11-01T12:40:13.801Z,99343.19
2023-11-01T12:43:06.079Z,99334.19
2023-11-01T12:45:34.062Z,99300.91
2023-11-01T12:48:01.722Z,99336.34
2023-11-01T12:50:37.863Z,99329.00
2023-11-01T12:53:05.122Z,99325.13
2023-11-01T12:55:38.101Z,99318.63
2023-11-01T12:58:08.704Z,99299.94
2023-11-01T13:00:35.997Z,99291.97
2023-11-01T13:03:03.989Z,99278.56
2023-11-01T13:05:34.830Z,99307.06
2023-11-01T13:08:06.111Z,99300.50
2023-11-01T13:10:40.104Z,99305.47
2023-11-01T13:13:13.021Z,99256.25
2023-11-01T13:15:40.306Z,99295.56
2023-11-01T13:18:07.562Z,99287.50
2023-11-01T13:20:35.179Z,99264.44
2023-11-01T13:23:02.972Z,99290.16
2023-11-01T13:25:30.080Z,99274.00
2023-11-01T13:27:57.252Z,99249.00
2023-11-01T13:30:24.635Z,99273.28
2023-11-01T13:32:51.781Z,99270.16
2023-11-01T13:35:18.875Z,99262.31
2023-11-01T13:37:49.340Z,99263.88
2023-11-01T13:40:16.606Z,99260.19
2023-11-01T13:42:44.016Z,99260.41
2023-11-01T13:45:11.571Z,99261.97
2023-11-01T13:47:39.417Z,99251.31
2023-11-01T13:50:10.543Z,99230.47
2023-11-01T13:52:38.796Z,99242.59
2023-11-01T13:55:06.283Z,99240.00
2023-11-01T13:57:33.770Z,99237.69
2023-11-01T14:00:01.183Z,99221.53
2023-11-01T14:02:28.433Z,99222.00
2023-11-01T14:04:55.506Z,99227.66
2023-11-01T14:07:28.323Z,99224.69
2023-11-01T14:09:55.963Z,99233.53
2023-11-01T14:12:23.200Z,99225.22
2023-11-01T14:14:50.309Z,99188.56
2023-11-01T14:17:17.773Z,99199.38
2023-11-01T14:19:48.065Z,99218.91
2023-11-01T14:22:15.651Z,99171.19
2023-11-01T14:24:46.296Z,99219.75
2023-11-01T14:27:14.078Z,99222.41
2023-11-01T14:29:41.277Z,99216.16
2023-11-01T14:32:08.936Z,99213.53
2023-11-01T14:34:36.113Z,99189.25
2023-11-01T14:37:06.084Z,99218.25
2023-11-01T14:39:34.885Z,99218.13
2023-11-01T14:42:02.632Z,99220.78
2023-11-01T14:44:30.650Z,99216.13
2023-11-01T14:46:58.016Z,99213.03
2023-11-01T14:49:25.077Z,99212.91
2023-11-01T14:51:52.316Z,99198.09
2023-11-01T14:54:20.701Z,99205.53
2023-11-01T14:56:47.919Z,99210.63
2023-11-01T14:59:17.574Z,99208.16
2023-11-01T15:01:49.390Z,99153.00
2023-11-01T15:04:16.855Z,99211.13
2023-11-01T15:06:45.301Z,99215.81
2023-11-01T15:09:14.157Z,99203.78
2023-11-01T15:11:45.693Z,99190.06
2023-11-01T15:14:12.893Z,99199.53
2023-11-01T15:16:40.282Z,99195.59
2023-11-01T15:19:07.473Z,99152.56
2023-11-01T15:21:35.576Z,99191.13
2023-11-01T15:24:04.525Z,99186.13
2023-11-01T15:26:35.559Z,99193.53
2023-11-01T15:29:04.418Z,99181.06
2023-11-01T15:31:32.389Z,99151.78
2023-11-01T15:34:00.189Z,99170.47
2023-11-01T15:36:28.054Z,99199.06
2023-11-01T15:38:55.426Z,99193.75
2023-11-01T15:41:23.070Z,99167.78
2023-11-01T15:43:50.583Z,99193.22
2023-11-01T15:46:18.114Z,99193.50
2023-11-01T15:48:46.052Z,99186.59
2023-11-01T15:51:13.783Z,99169.00
2023-11-01T15:53:41.992Z,99189.44
2023-11-01T15:56:11.316Z,99185.91
2023-11-01T15:58:41.480Z,99184.63
2023-11-01T16:01:09.128Z,99171.00
2023-11-01T16:03:36.560Z,99192.50
2023-11-01T16:06:05.172Z,99192.97
2023-11-01T16:08:32.749Z,99185.59
2023-11-01T16:11:00.494Z,99202.34
2023-11-01T16:13:28.594Z,99199.97
2023-11-01T16:15:56.591Z,99186.59
2023-11-01T16:18:23.744Z,99208.19
2023-11-01T16:20:50.960Z,99200.25
2023-11-01T16:23:18.015Z,99134.72
2023-11-01T16:25:45.977Z,99190.94
2023-11-01T16:28:13.429Z,99181.50
2023-11-01T16:30:40.614Z,99173.66
2023-11-01T16:33:07.960Z,99162.28
2023-11-01T16:35:35.581Z,99140.16
2023-11-01T16:38:02.758Z,99084.81
2023-11-01T16:40:30.017Z,99165.25
2023-11-01T16:42:57.422Z,99171.75
2023-11-01T16:45:25.345Z,99168.03
2023-11-01T16:47:53.001Z,99138.69
2023-11-01T16:50:20.208Z,99164.25
2023-11-01T16:52:47.525Z,99161.69
2023-11-01T16:55:15.145Z,99151.28
2023-11-01T16:57:42.936Z,99137.66
2023-11-01T17:00:11.659Z,99138.22
2023-11-01T17:02:47.787Z,99127.97
2023-11-01T17:05:17.835Z,99142.84
2023-11-01T17:07:44.962Z,99123.44
2023-11-01T17:10:12.535Z,99106.41
2023-11-01T17:12:40.116Z,99164.56
2023-11-01T17:15:07.889Z,99125.41
2023-11-01T17:17:37.452Z,99154.53
2023-11-01T17:20:06.646Z,99151.97
2023-11-01T17:22:46.069Z,99168.63
2023-11-01T17:25:45.265Z,99171.38
2023-11-01T17:28:38.364Z,99167.47
2023-11-01T17:31:13.158Z,99185.22
2023-11-01T17:33:44.067Z,99193.59
2023-11-01T17:36:24.131Z,99222.47
2023-11-01T17:38:55.818Z,99275.69
2023-11-01T17:41:53.989Z,99305.66
2023-11-01T17:44:32.206Z,99248.88
2023-11-01T17:47:14.097Z,99198.31
2023-11-01T17:49:48.762Z,99224.38
2023-11-01T17:52:44.029Z,99256.03
2023-11-01T17:55:17.896Z,99254.31
2023-11-01T17:57:48.622Z,99265.00
2023-11-01T18:00:20.865Z,99258.16
2023-11-01T18:02:54.324Z,99266.13
2023-11-01T18:05:44.842Z,99257.81
2023-11-01T18:08:17.525Z,99217.09
2023-11-01T18:10:56.638Z,99269.34
2023-11-01T18:13:26.159Z,99259.00
2023-11-01T18:16:00.344Z,99251.25
2023-11-01T18:19:00.239Z,99269.69
2023-11-01T18:21:32.776Z,99269.75
2023-11-01T18:24:08.751Z,99270.81
2023-11-01T18:26:36.037Z,99258.88
2023-11-01T18:29:07.841Z,99270.97
2023-11-01T18:31:45.080Z,99263.91
2023-11-01T18:34:14.732Z,99257.00
2023-11-01T18:36:51.236Z,99252.66
2023-11-01T18:39:26.015Z,99274.88
2023-11-01T18:41:56.868Z,99271.25
2023-11-01T18:44:46.983Z,99271.47
2023-11-01T18:47:24.320Z,99272.09
2023-11-01T18:50:20.105Z,99261.50
2023-11-01T18:53:10.136Z,99250.66
2023-11-01T18:55:38.646Z,99278.34
2023-11-01T18:58:06.286Z,99255.28
2023-11-01T19:00:52.993Z,99239.88
2023-11-01T19:06:26.587Z,99246.22
2023-11-01T19:08:56.616Z,99263.13
2023-11-01T19:11:26.929Z,99245.03
2023-11-01T19:13:58.972Z,99271.03
2023-11-01T19:16:31.797Z,99257.53
2023-11-01T19:18:59.623Z,99259.78
2023-11-01T19:21:30.167Z,99192.63
2023-11-01T19:24:02.572Z,99244.13
2023-11-01T19:26:35.780Z,99248.47
2023-11-01T19:29:03.870Z,99184.34
2023-11-01T19:31:50.086Z,99210.84
2023-11-01T19:34:21.928Z,99235.44
2023-11-01T19:40:36.137Z,99213.09
2023-11-01T19:43:07.635Z,99207.94
2023-11-01T19:45:41.701Z,99207.69
2023-11-01T19:48:42.638Z,99208.22
2023-11-01T19:51:30.895Z,99204.88
2023-11-01T19:53:58.427Z,99198.91
2023-11-01T19:56:27.206Z,99160.69
2023-11-01T19:58:54.496Z,99183.88
2023-11-01T20:04:51.289Z,99196.06
2023-11-01T20:15:44.326Z,99189.69
2023-11-01T20:18:11.779Z,99170.81
2023-11-01T20:20:47.906Z,99166.88
2023-11-01T20:23:15.654Z,99197.84
2023-11-01T20:25:44.599Z,99204.03
2023-11-01T20:28:28.741Z,99159.19
2023-11-01T20:31:03.776Z,99172.94
2023-11-01T20:33:39.550Z,99161.16
2023-11-01T20:36:16.104Z,99174.41
2023-11-01T20:38:53.355Z,99184.16
2023-11-01T20:41:25.885Z,99175.03
2023-11-01T20:43:53.147Z,99189.63
2023-11-01T20:46:20.751Z,99129.47
2023-11-01T20:48:48.347Z,99116.78
2023-11-01T20:51:21.994Z,99110.78
2023-11-01T20:53:52.702Z,99071.69
2023-11-01T20:56:23.760Z,99162.22
2023-11-01T20:58:54.377Z,99159.44
2023-11-01T21:01:27.451Z,99149.13
2023-11-01T21:04:13.459Z,99145.66
2023-11-01T21:06:55.602Z,99143.81
2023-11-01T21:09:36.348Z,99112.16
2023-11-01T21:12:06.032Z,99125.88
2023-11-01T21:14:37.764Z,99070.50
2023-11-01T21:17:07.571Z,99084.69
2023-11-01T21:19:35.350Z,99138.56
2023-11-01T21:22:02.961Z,99112.88
2023-11-01T21:24:30.721Z,99072.78
2023-11-01T21:27:05.169Z,99065.78
2023-11-01T21:29:41.736Z,99126.03
2023-11-01T21:32:11.252Z,99066.63
2023-11-01T21:34:38.555Z,99011.03
2023-11-01T21:37:05.834Z,99025.69
2023-11-01T21:39:34.279Z,99102.94
2023-11-01T21:42:03.478Z,99088.72
2023-11-01T21:44:39.418Z,99074.66
2023-11-01T21:47:13.169Z,99072.06
2023-11-01T21:49:41.553Z,99061.94
2023-11-01T21:52:23.799Z,99067.88
2023-11-01T21:54:53.374Z,99074.50
2023-11-01T21:57:31.627Z,99008.19
2023-11-01T22:00:10.276Z,99000.09
2023-11-01T22:02:51.475Z,99064.78
2023-11-01T22:05:19.956Z,98981.50
2023-11-01T22:07:47.953Z,98997.72
2023-11-01T22:10:17.823Z,98977.72
2023-11-01T22:12:50.807Z,98933.47
2023-11-01T22:15:21.005Z,99017.75
2023-11-01T22:17:48.551Z,98987.16
2023-11-01T22:20:23.347Z,99004.94
2023-11-01T22:23:01.416Z,99016.03
2023-11-01T22:25:40.841Z,98987.34
2023-11-01T22:28:12.350Z,98973.81
2023-11-01T22:30:39.504Z,99007.75
2023-11-01T22:33:12.393Z,98992.09
2023-11-01T22:35:47.488Z,98982.34
2023-11-01T22:38:17.360Z,98990.88
2023-11-01T22:40:47.845Z,98896.94
2023-11-01T22:43:16.701Z,98932.00
2023-11-01T22:45:44.798Z,98892.63
2023-11-01T22:48:13.354Z,98967.13
2023-11-01T22:50:40.609Z,98924.59
2023-11-01T22:53:10.451Z,98907.50
2023-11-01T22:55:41.486Z,98929.56
2023-11-01T22:58:11.033Z,98865.44
2023-11-01T23:00:38.293Z,98842.03
2023-11-01T23:03:06.249Z,98926.88
2023-11-01T23:05:34.956Z,98924.09
2023-11-01T23:08:02.938Z,98899.44
2023-11-01T23:10:32.353Z,98922.53
2023-11-01T23:13:01.246Z,98894.72
2023-11-01T23:15:28.710Z,98851.38
2023-11-01T23:17:57.820Z,98899.97
2023-11-01T23:20:25.244Z,98830.69
2023-11-01T23:22:53.756Z,98810.09
2023-11-01T23:25:32.331Z,98888.25
2023-11-01T23:28:22.056Z,98876.47
2023-11-01T23:30:54.760Z,98797.50
2023-11-01T23:33:38.163Z,98875.81
2023-11-01T23:36:13.809Z,98844.88
2023-11-01T23:38:48.491Z,98855.81
2023-11-01T23:41:27.740Z,98870.16
2023-11-01T23:44:02.407Z,98789.25
2023-11-01T23:46:29.759Z,98789.03
2023-11-01T23:48:59.184Z,98818.19
2023-11-01T23:51:58.870Z,98812.22
2023-11-01T23:54:28.178Z,98718.72
2023-11-01T23:56:55.303Z,98817.09
2023-11-01T23:59:22.921Z,98791.69
